createdAt,value
2018-12-15T00:00:44.503Z,309
2018-12-15T00:01:51.420Z,309
2018-12-15T00:02:58.611Z,309
2018-12-15T00:04:05.803Z,309
2018-12-15T00:05:12.722Z,309
2018-12-15T00:06:19.913Z,309
2018-12-15T00:07:27.108Z,309
2018-12-15T00:08:34.300Z,308
2018-12-15T00:09:41.493Z,309
2018-12-15T00:10:48.686Z,309
2018-12-15T00:11:55.609Z,309
2018-12-15T00:13:02.808Z,309
2018-12-15T00:14:09.451Z,309
2018-12-15T00:15:16.644Z,308
2018-12-15T00:16:23.562Z,309
2018-12-15T00:17:30.761Z,309
2018-12-15T00:18:37.954Z,308
2018-12-15T00:19:45.148Z,308
2018-12-15T00:20:52.071Z,308
2018-12-15T00:21:59.265Z,308
2018-12-15T00:23:06.189Z,308
2018-12-15T00:24:13.107Z,308
2018-12-15T00:25:20.299Z,308
2018-12-15T00:26:27.498Z,309
2018-12-15T00:27:34.422Z,308
2018-12-15T00:28:41.614Z,308
2018-12-15T00:29:48.539Z,308
2018-12-15T00:30:55.737Z,308
2018-12-15T00:32:02.657Z,308
2018-12-15T00:33:09.855Z,309
2018-12-15T00:34:17.044Z,308
2018-12-15T00:35:23.963Z,309
2018-12-15T00:36:30.886Z,308
2018-12-15T00:37:38.074Z,308
2018-12-15T00:38:45.266Z,308
2018-12-15T00:39:52.462Z,309
2018-12-15T00:40:59.384Z,309
2018-12-15T00:42:06.581Z,309
2018-12-15T00:43:13.774Z,309
2018-12-15T00:44:20.968Z,308
2018-12-15T00:45:28.158Z,308
2018-12-15T00:46:35.081Z,308
2018-12-15T00:47:42.276Z,308
2018-12-15T00:48:49.470Z,308
2018-12-15T00:49:56.660Z,308
2018-12-15T00:51:03.851Z,309
2018-12-15T00:52:11.044Z,309
2018-12-15T00:53:18.233Z,308
2018-12-15T00:54:25.435Z,309
2018-12-15T00:55:32.349Z,309
2018-12-15T00:56:39.560Z,308
2018-12-15T00:57:46.755Z,309
2018-12-15T00:58:53.674Z,308
2018-12-15T01:00:00.868Z,309
2018-12-15T01:01:08.067Z,309
2018-12-15T01:02:15.257Z,309
2018-12-15T01:03:22.455Z,309
2018-12-15T01:04:29.650Z,309
2018-12-15T01:05:36.843Z,309
2018-12-15T01:06:43.761Z,308
2018-12-15T01:07:50.955Z,309
2018-12-15T01:08:58.368Z,308
2018-12-15T01:10:05.568Z,309
2018-12-15T01:11:12.772Z,308
2018-12-15T01:12:19.968Z,308
2018-12-15T01:13:27.184Z,309
2018-12-15T01:14:34.382Z,309
2018-12-15T01:15:41.575Z,309
2018-12-15T01:16:48.493Z,309
2018-12-15T01:17:55.687Z,309
2018-12-15T01:19:02.878Z,308
2018-12-15T01:20:10.077Z,309
2018-12-15T01:21:17.000Z,309
2018-12-15T01:22:24.190Z,309
2018-12-15T01:23:31.604Z,309
2018-12-15T01:24:38.797Z,309
2018-12-15T01:25:46.034Z,308
2018-12-15T01:26:53.226Z,309
2018-12-15T01:28:00.424Z,308
2018-12-15T01:29:07.615Z,308
2018-12-15T01:30:14.802Z,309
2018-12-15T01:31:21.994Z,309
2018-12-15T01:32:29.187Z,309
2018-12-15T01:33:36.379Z,309
2018-12-15T01:34:43.573Z,309
2018-12-15T01:35:50.766Z,309
2018-12-15T01:36:57.956Z,309
2018-12-15T01:38:04.874Z,309
2018-12-15T01:39:12.065Z,309
2018-12-15T01:40:19.256Z,308
2018-12-15T01:41:26.177Z,309
2018-12-15T01:42:33.097Z,309
2018-12-15T01:43:40.291Z,309
2018-12-15T01:44:47.494Z,309
2018-12-15T01:45:54.423Z,309
2018-12-15T01:47:01.621Z,309
2018-12-15T01:48:08.819Z,308
2018-12-15T01:49:16.035Z,309
2018-12-15T01:50:23.227Z,308
2018-12-15T01:51:30.422Z,309
2018-12-15T01:52:37.615Z,308
2018-12-15T01:53:44.806Z,309
2018-12-15T01:54:51.997Z,308
2018-12-15T01:55:58.648Z,309
2018-12-15T01:57:05.565Z,309
2018-12-15T01:58:12.755Z,308
2018-12-15T01:59:19.954Z,309
2018-12-15T02:00:27.153Z,309
2018-12-15T02:01:34.346Z,309
2018-12-15T02:02:41.538Z,309
2018-12-15T02:03:48.735Z,309
2018-12-15T02:04:55.926Z,309
2018-12-15T02:06:02.846Z,308
2018-12-15T02:07:10.039Z,309
2018-12-15T02:08:17.231Z,309
2018-12-15T02:09:24.151Z,309
2018-12-15T02:10:31.342Z,308
2018-12-15T02:11:38.535Z,309
2018-12-15T02:12:45.735Z,309
2018-12-15T02:13:52.932Z,309
2018-12-15T02:15:00.127Z,309
2018-12-15T02:16:07.321Z,309
2018-12-15T02:17:14.517Z,309
2018-12-15T02:18:21.433Z,309
2018-12-15T02:19:28.625Z,309
2018-12-15T02:20:35.825Z,309
2018-12-15T02:21:43.020Z,309
2018-12-15T02:22:49.938Z,309
2018-12-15T02:23:57.133Z,308
2018-12-15T02:25:04.327Z,309
2018-12-15T02:26:11.524Z,309
2018-12-15T02:27:18.710Z,309
2018-12-15T02:28:25.904Z,309
2018-12-15T02:29:33.097Z,309
2018-12-15T02:30:40.351Z,309
2018-12-15T02:31:47.267Z,308
2018-12-15T02:32:54.466Z,309
2018-12-15T02:34:01.662Z,309
2018-12-15T02:35:08.861Z,309
2018-12-15T02:36:15.781Z,309
2018-12-15T02:37:22.973Z,309
2018-12-15T02:38:30.162Z,309
2018-12-15T02:39:37.354Z,309
2018-12-15T02:40:44.546Z,308
2018-12-15T02:41:51.748Z,309
2018-12-15T02:42:58.936Z,309
2018-12-15T02:44:06.125Z,309
2018-12-15T02:45:13.317Z,309
2018-12-15T02:46:20.507Z,309
2018-12-15T02:47:27.420Z,309
2018-12-15T02:48:34.068Z,309
2018-12-15T02:49:41.262Z,309
2018-12-15T02:50:48.455Z,309
2018-12-15T02:51:55.104Z,309
2018-12-15T02:53:02.300Z,309
2018-12-15T02:54:09.509Z,309
2018-12-15T02:55:16.700Z,310
2018-12-15T02:56:23.893Z,309
2018-12-15T02:57:30.828Z,309
2018-12-15T02:58:38.034Z,309
2018-12-15T02:59:45.228Z,309
2018-12-15T03:00:52.419Z,309
2018-12-15T03:01:59.612Z,309
2018-12-15T03:03:06.832Z,309
2018-12-15T03:04:14.013Z,309
2018-12-15T03:05:21.199Z,309
2018-12-15T03:06:28.391Z,309
2018-12-15T03:07:35.581Z,309
2018-12-15T03:08:42.775Z,309
2018-12-15T03:09:49.696Z,309
2018-12-15T03:10:56.954Z,309
2018-12-15T03:12:04.135Z,309
2018-12-15T03:13:11.352Z,310
2018-12-15T03:14:18.550Z,309
2018-12-15T03:15:25.738Z,310
2018-12-15T03:16:32.667Z,309
2018-12-15T03:17:39.864Z,309
2018-12-15T03:18:46.778Z,309
2018-12-15T03:19:53.967Z,309
2018-12-15T03:21:01.168Z,309
2018-12-15T03:22:08.371Z,309
2018-12-15T03:23:15.566Z,309
2018-12-15T03:24:22.761Z,309
2018-12-15T03:25:29.679Z,309
2018-12-15T03:26:36.874Z,309
2018-12-15T03:27:43.793Z,310
2018-12-15T03:28:50.749Z,309
2018-12-15T03:29:57.925Z,309
2018-12-15T03:31:04.846Z,309
2018-12-15T03:32:12.037Z,309
2018-12-15T03:33:19.249Z,310
2018-12-15T03:34:26.444Z,310
2018-12-15T03:35:33.705Z,310
2018-12-15T03:36:40.883Z,309
2018-12-15T03:37:48.076Z,309
2018-12-15T03:38:55.267Z,310
2018-12-15T03:40:02.461Z,309
2018-12-15T03:41:09.760Z,309
2018-12-15T03:42:16.685Z,310
2018-12-15T03:43:23.334Z,310
2018-12-15T03:44:30.527Z,309
2018-12-15T03:45:37.721Z,309
2018-12-15T03:46:44.910Z,309
2018-12-15T03:47:57.281Z,309
2018-12-15T03:49:04.472Z,310
2018-12-15T03:50:11.397Z,309
2018-12-15T03:51:18.313Z,309
2018-12-15T03:52:25.508Z,309
2018-12-15T03:53:32.425Z,309
2018-12-15T03:54:39.627Z,309
2018-12-15T03:55:46.817Z,309
2018-12-15T03:56:54.012Z,309
2018-12-15T03:58:01.203Z,309
2018-12-15T03:59:08.123Z,309
2018-12-15T04:00:15.315Z,309
2018-12-15T04:01:22.507Z,309
2018-12-15T04:02:29.696Z,309
2018-12-15T04:03:36.891Z,309
2018-12-15T04:04:44.079Z,309
2018-12-15T04:05:50.729Z,309
2018-12-15T04:06:57.653Z,309
2018-12-15T04:08:04.842Z,309
2018-12-15T04:09:12.041Z,309
2018-12-15T04:10:19.227Z,309
2018-12-15T04:11:26.419Z,309
2018-12-15T04:12:33.350Z,310
2018-12-15T04:13:40.275Z,309
2018-12-15T04:14:47.477Z,310
2018-12-15T04:15:54.403Z,310
2018-12-15T04:17:01.595Z,310
2018-12-15T04:18:08.787Z,310
2018-12-15T04:19:15.980Z,310
2018-12-15T04:20:23.170Z,310
2018-12-15T04:21:30.360Z,310
2018-12-15T04:22:37.561Z,310
2018-12-15T04:23:44.754Z,310
2018-12-15T04:24:51.948Z,310
2018-12-15T04:25:59.145Z,310
2018-12-15T04:27:05.792Z,310
2018-12-15T04:28:12.980Z,310
2018-12-15T04:29:20.170Z,309
2018-12-15T04:30:27.363Z,310
2018-12-15T04:31:34.293Z,310
2018-12-15T04:32:46.228Z,310
2018-12-15T04:33:53.425Z,310
2018-12-15T04:35:00.618Z,310
2018-12-15T04:36:07.810Z,310
2018-12-15T04:37:15.082Z,310
2018-12-15T04:38:22.284Z,310
2018-12-15T04:39:29.475Z,310
2018-12-15T04:40:36.663Z,309
2018-12-15T04:41:43.853Z,310
2018-12-15T04:42:51.057Z,310
2018-12-15T04:43:58.249Z,310
2018-12-15T04:45:05.438Z,309
2018-12-15T04:46:12.632Z,310
2018-12-15T04:47:20.060Z,310
2018-12-15T04:48:27.238Z,310
2018-12-15T04:49:34.437Z,310
2018-12-15T04:50:41.625Z,309
2018-12-15T04:51:48.814Z,310
2018-12-15T04:52:56.008Z,310
2018-12-15T04:54:03.205Z,310
2018-12-15T04:55:10.400Z,310
2018-12-15T04:56:17.319Z,309
2018-12-15T04:57:24.238Z,310
2018-12-15T04:58:31.428Z,310
2018-12-15T04:59:38.619Z,310
2018-12-15T05:00:45.817Z,310
2018-12-15T05:01:52.744Z,310
2018-12-15T05:02:59.941Z,310
2018-12-15T05:04:07.131Z,309
2018-12-15T05:05:14.324Z,309
2018-12-15T05:06:21.517Z,310
2018-12-15T05:07:28.717Z,310
2018-12-15T05:08:35.914Z,310
2018-12-15T05:09:43.111Z,310
2018-12-15T05:10:50.302Z,310
2018-12-15T05:11:57.492Z,310
2018-12-15T05:13:04.415Z,310
2018-12-15T05:14:11.610Z,310
2018-12-15T05:15:18.589Z,310
2018-12-15T05:16:25.770Z,310
2018-12-15T05:17:32.961Z,310
2018-12-15T05:18:40.152Z,310
2018-12-15T05:19:47.343Z,310
2018-12-15T05:20:54.270Z,309
2018-12-15T05:22:01.464Z,310
2018-12-15T05:23:08.652Z,310
2018-12-15T05:24:15.570Z,310
2018-12-15T05:25:22.761Z,310
2018-12-15T05:26:29.951Z,310
2018-12-15T05:27:37.142Z,310
2018-12-15T05:28:44.342Z,310
2018-12-15T05:29:51.531Z,310
2018-12-15T05:30:58.720Z,310
2018-12-15T05:32:05.916Z,310
2018-12-15T05:33:13.105Z,310
2018-12-15T05:34:20.304Z,310
2018-12-15T05:35:27.230Z,309
2018-12-15T05:36:34.417Z,310
2018-12-15T05:37:41.340Z,309
2018-12-15T05:38:48.343Z,309
2018-12-15T05:39:55.534Z,310
2018-12-15T05:41:02.722Z,310
2018-12-15T05:42:09.686Z,310
2018-12-15T05:43:16.878Z,309
2018-12-15T05:44:24.075Z,310
2018-12-15T05:45:31.266Z,310
2018-12-15T05:46:38.182Z,309
2018-12-15T05:47:45.109Z,310
2018-12-15T05:48:51.757Z,310
2018-12-15T05:49:58.992Z,310
2018-12-15T05:51:06.183Z,310
2018-12-15T05:52:13.383Z,310
2018-12-15T05:53:20.566Z,309
2018-12-15T05:54:27.482Z,310
2018-12-15T05:55:34.130Z,310
2018-12-15T05:56:41.048Z,310
2018-12-15T05:57:48.238Z,310
2018-12-15T05:58:55.433Z,310
2018-12-15T06:00:02.626Z,309
2018-12-15T06:01:09.546Z,310
2018-12-15T06:02:16.738Z,310
2018-12-15T06:03:23.937Z,310
2018-12-15T06:04:30.852Z,309
2018-12-15T06:05:37.769Z,310
2018-12-15T06:06:44.959Z,310
2018-12-15T06:07:52.151Z,310
2018-12-15T06:08:59.076Z,310
2018-12-15T06:10:06.266Z,310
2018-12-15T06:11:13.463Z,310
2018-12-15T06:12:20.653Z,310
2018-12-15T06:13:27.851Z,310
2018-12-15T06:14:34.781Z,310
2018-12-15T06:15:41.705Z,310
2018-12-15T06:16:48.906Z,310
2018-12-15T06:17:55.831Z,310
2018-12-15T06:19:02.810Z,310
2018-12-15T06:20:10.251Z,310
2018-12-15T06:21:17.452Z,310
2018-12-15T06:22:24.370Z,310
2018-12-15T06:23:31.558Z,310
2018-12-15T06:24:40.117Z,310
2018-12-15T06:25:47.305Z,310
2018-12-15T06:26:54.498Z,310
2018-12-15T06:28:01.688Z,310
2018-12-15T06:29:08.876Z,309
2018-12-15T06:30:15.530Z,310
2018-12-15T06:31:22.451Z,310
2018-12-15T06:32:29.649Z,310
2018-12-15T06:33:36.835Z,310
2018-12-15T06:34:44.029Z,310
2018-12-15T06:35:50.951Z,310
2018-12-15T06:36:58.147Z,310
2018-12-15T06:38:05.338Z,310
2018-12-15T06:39:12.253Z,309
2018-12-15T06:40:19.443Z,310
2018-12-15T06:41:26.367Z,310
2018-12-15T06:42:33.559Z,310
2018-12-15T06:43:40.755Z,310
2018-12-15T06:44:47.397Z,310
2018-12-15T06:45:54.044Z,310
2018-12-15T06:47:01.234Z,309
2018-12-15T06:48:08.476Z,310
2018-12-15T06:49:15.396Z,310
2018-12-15T06:50:22.591Z,310
2018-12-15T06:51:29.783Z,310
2018-12-15T06:52:36.972Z,310
2018-12-15T06:53:43.627Z,310
2018-12-15T06:54:50.822Z,310
2018-12-15T06:55:58.014Z,310
2018-12-15T06:57:04.936Z,310
2018-12-15T06:58:11.856Z,310
2018-12-15T06:59:18.795Z,310
2018-12-15T07:00:25.711Z,309
2018-12-15T07:01:32.634Z,309
2018-12-15T07:02:39.574Z,310
2018-12-15T07:03:46.765Z,310
2018-12-15T07:04:53.962Z,310
2018-12-15T07:06:01.158Z,310
2018-12-15T07:07:08.349Z,310
2018-12-15T07:08:15.543Z,310
2018-12-15T07:09:22.732Z,310
2018-12-15T07:10:29.926Z,310
2018-12-15T07:11:37.121Z,310
2018-12-15T07:12:44.325Z,310
2018-12-15T07:14:06.174Z,310
2018-12-15T07:15:13.362Z,310
2018-12-15T07:16:20.558Z,310
2018-12-15T07:17:27.746Z,309
2018-12-15T07:18:34.934Z,310
2018-12-15T07:19:42.126Z,310
2018-12-15T07:20:49.325Z,310
2018-12-15T07:21:56.522Z,309
2018-12-15T07:23:03.718Z,310
2018-12-15T07:24:10.908Z,310
2018-12-15T07:25:18.109Z,310
2018-12-15T07:26:25.303Z,310
2018-12-15T07:27:32.499Z,309
2018-12-15T07:28:39.413Z,310
2018-12-15T07:29:46.606Z,310
2018-12-15T07:30:53.522Z,309
2018-12-15T07:32:00.713Z,309
2018-12-15T07:33:07.904Z,310
2018-12-15T07:34:15.096Z,310
2018-12-15T07:35:22.358Z,310
2018-12-15T07:36:29.536Z,309
2018-12-15T07:37:36.734Z,310
2018-12-15T07:38:43.924Z,310
2018-12-15T07:39:51.116Z,310
2018-12-15T07:40:58.315Z,310
2018-12-15T07:42:05.506Z,309
2018-12-15T07:43:12.704Z,310
2018-12-15T07:44:19.908Z,309
2018-12-15T07:45:27.102Z,309
2018-12-15T07:46:34.355Z,310
2018-12-15T07:47:41.536Z,309
2018-12-15T07:48:52.415Z,310
2018-12-15T07:49:59.338Z,309
2018-12-15T07:51:07.945Z,309
2018-12-15T07:52:15.148Z,309
2018-12-15T07:53:22.342Z,309
2018-12-15T07:54:29.261Z,309
2018-12-15T07:55:36.181Z,309
2018-12-15T07:56:43.379Z,309
2018-12-15T07:57:50.573Z,309
2018-12-15T07:58:57.991Z,309
2018-12-15T08:00:05.188Z,309
2018-12-15T08:01:12.378Z,309
2018-12-15T08:02:19.573Z,309
2018-12-15T08:03:26.768Z,309
2018-12-15T08:04:33.960Z,309
2018-12-15T08:05:41.153Z,309
2018-12-15T08:06:48.348Z,309
2018-12-15T08:07:55.536Z,309
2018-12-15T08:09:02.732Z,309
2018-12-15T08:10:09.933Z,309
2018-12-15T08:11:17.125Z,308
2018-12-15T08:12:24.042Z,308
2018-12-15T08:13:30.963Z,308
2018-12-15T08:14:37.877Z,309
2018-12-15T08:15:45.117Z,308
2018-12-15T08:16:52.309Z,309
2018-12-15T08:17:59.500Z,308
2018-12-15T08:19:06.960Z,308
2018-12-15T08:20:14.157Z,308
2018-12-15T08:21:21.348Z,308
2018-12-15T08:22:28.269Z,308
2018-12-15T08:23:35.189Z,308
2018-12-15T08:24:42.384Z,308
2018-12-15T08:25:50.889Z,308
2018-12-15T08:26:57.809Z,308
2018-12-15T08:28:04.729Z,308
2018-12-15T08:29:11.924Z,308
2018-12-15T08:30:19.121Z,308
2018-12-15T08:31:26.318Z,308
2018-12-15T08:32:33.514Z,308
2018-12-15T08:33:40.714Z,308
2018-12-15T08:34:47.906Z,308
2018-12-15T08:35:55.098Z,307
2018-12-15T08:37:02.024Z,307
2018-12-15T08:38:09.218Z,308
2018-12-15T08:39:16.143Z,308
2018-12-15T08:40:23.066Z,307
2018-12-15T08:41:30.263Z,308
2018-12-15T08:42:37.458Z,307
2018-12-15T08:43:44.384Z,308
2018-12-15T08:44:51.311Z,307
2018-12-15T08:45:58.502Z,307
2018-12-15T08:47:05.427Z,307
2018-12-15T08:48:12.354Z,307
2018-12-15T08:49:19.271Z,307
2018-12-15T08:50:26.461Z,307
2018-12-15T08:51:33.658Z,307
2018-12-15T08:52:40.852Z,306
2018-12-15T08:53:48.044Z,307
2018-12-15T08:54:54.973Z,307
2018-12-15T08:56:01.624Z,306
2018-12-15T08:57:08.826Z,306
2018-12-15T08:58:16.024Z,306
2018-12-15T08:59:23.216Z,306
2018-12-15T09:00:29.851Z,306
2018-12-15T09:01:36.772Z,306
2018-12-15T09:02:43.966Z,306
2018-12-15T09:03:50.889Z,306
2018-12-15T09:04:57.535Z,306
2018-12-15T09:06:04.193Z,306
2018-12-15T09:07:11.394Z,306
2018-12-15T09:08:18.323Z,306
2018-12-15T09:09:25.267Z,306
2018-12-15T09:10:32.185Z,306
2018-12-15T09:11:39.377Z,306
2018-12-15T09:12:46.297Z,305
2018-12-15T09:13:52.965Z,305
2018-12-15T09:15:00.157Z,305
2018-12-15T09:16:07.079Z,305
2018-12-15T09:17:14.267Z,305
2018-12-15T09:18:21.201Z,305
2018-12-15T09:19:28.123Z,305
2018-12-15T09:20:35.327Z,305
2018-12-15T09:21:42.249Z,304
2018-12-15T09:22:49.171Z,305
2018-12-15T09:23:56.362Z,305
2018-12-15T09:25:03.566Z,305
2018-12-15T09:26:10.760Z,305
2018-12-15T09:27:17.959Z,305
2018-12-15T09:28:25.153Z,304
2018-12-15T09:29:32.352Z,305
2018-12-15T09:30:39.542Z,305
2018-12-15T09:31:46.733Z,305
2018-12-15T09:32:53.925Z,304
2018-12-15T09:34:01.127Z,304
2018-12-15T09:35:07.775Z,304
2018-12-15T09:36:14.972Z,305
2018-12-15T09:37:22.167Z,305
2018-12-15T09:38:29.084Z,305
2018-12-15T09:39:36.290Z,304
2018-12-15T09:40:43.472Z,304
2018-12-15T09:41:50.663Z,304
2018-12-15T09:42:57.578Z,304
2018-12-15T09:44:04.768Z,304
2018-12-15T09:45:11.683Z,304
2018-12-15T09:46:18.898Z,304
2018-12-15T09:47:26.109Z,304
2018-12-15T09:48:33.028Z,304
2018-12-15T09:49:39.954Z,304
2018-12-15T09:50:46.883Z,304
2018-12-15T09:51:54.089Z,304
2018-12-15T09:53:01.031Z,303
2018-12-15T09:54:08.228Z,303
2018-12-15T09:55:15.424Z,304
2018-12-15T09:56:22.619Z,304
2018-12-15T09:57:29.547Z,304
2018-12-15T09:58:36.738Z,303
2018-12-15T09:59:43.653Z,303
2018-12-15T10:00:50.851Z,304
2018-12-15T10:01:58.043Z,304
2018-12-15T10:03:04.966Z,303
2018-12-15T10:04:12.163Z,303
2018-12-15T10:05:18.806Z,303
2018-12-15T10:06:26.002Z,303
2018-12-15T10:07:33.203Z,303
2018-12-15T10:08:40.409Z,303
2018-12-15T10:09:47.606Z,303
2018-12-15T10:10:54.809Z,302
2018-12-15T10:12:02.003Z,302
2018-12-15T10:13:09.200Z,302
2018-12-15T10:14:16.393Z,303
2018-12-15T10:15:23.321Z,302
2018-12-15T10:16:30.515Z,303
2018-12-15T10:17:37.437Z,302
2018-12-15T10:18:44.631Z,302
2018-12-15T10:19:51.827Z,302
2018-12-15T10:20:59.022Z,302
2018-12-15T10:22:06.222Z,301
2018-12-15T10:23:13.413Z,301
2018-12-15T10:24:20.609Z,302
2018-12-15T10:25:27.258Z,301
2018-12-15T10:26:33.930Z,301
2018-12-15T10:27:41.124Z,302
2018-12-15T10:28:48.317Z,301
2018-12-15T10:29:55.512Z,301
2018-12-15T10:31:02.702Z,301
2018-12-15T10:32:09.674Z,301
2018-12-15T10:33:16.875Z,301
2018-12-15T10:34:24.071Z,301
2018-12-15T10:35:30.988Z,301
2018-12-15T10:36:37.915Z,300
2018-12-15T10:37:45.112Z,300
2018-12-15T10:38:52.315Z,301
2018-12-15T10:39:59.515Z,300
2018-12-15T10:41:06.718Z,300
2018-12-15T10:42:13.907Z,301
2018-12-15T10:43:21.102Z,301
2018-12-15T10:44:28.304Z,300
2018-12-15T10:45:35.497Z,301
2018-12-15T10:46:42.692Z,301
2018-12-15T10:47:49.454Z,300
2018-12-15T10:48:56.659Z,300
2018-12-15T10:50:03.849Z,300
2018-12-15T10:51:11.043Z,300
2018-12-15T10:52:17.969Z,300
2018-12-15T10:53:25.168Z,301
2018-12-15T10:54:32.091Z,301
2018-12-15T10:55:39.285Z,300
2018-12-15T10:56:46.480Z,300
2018-12-15T10:57:53.671Z,300
2018-12-15T10:59:00.596Z,301
2018-12-15T11:00:07.783Z,300
2018-12-15T11:01:14.974Z,300
2018-12-15T11:02:21.905Z,300
2018-12-15T11:03:28.835Z,300
2018-12-15T11:04:36.030Z,300
2018-12-15T11:05:43.234Z,300
2018-12-15T11:06:50.426Z,300
2018-12-15T11:07:57.624Z,300
2018-12-15T11:09:04.827Z,300
2018-12-15T11:10:11.755Z,300
2018-12-15T11:11:18.955Z,301
2018-12-15T11:12:26.152Z,301
2018-12-15T11:13:33.346Z,300
2018-12-15T11:14:40.546Z,300
2018-12-15T11:15:47.476Z,300
2018-12-15T11:16:54.672Z,300
2018-12-15T11:18:01.881Z,299
2018-12-15T11:19:09.076Z,300
2018-12-15T11:20:16.273Z,300
2018-12-15T11:21:23.473Z,301
2018-12-15T11:22:30.392Z,301
2018-12-15T11:23:37.587Z,300
2018-12-15T11:24:44.780Z,300
2018-12-15T11:25:51.979Z,300
2018-12-15T11:26:58.904Z,299
2018-12-15T11:28:05.826Z,300
2018-12-15T11:29:13.018Z,300
2018-12-15T11:30:20.213Z,300
2018-12-15T11:31:27.414Z,300
2018-12-15T11:32:34.616Z,301
2018-12-15T11:33:41.535Z,301
2018-12-15T11:34:48.791Z,301
2018-12-15T11:35:55.745Z,301
2018-12-15T11:37:02.677Z,301
2018-12-15T11:38:09.874Z,300
2018-12-15T11:39:17.075Z,301
2018-12-15T11:40:24.282Z,301
2018-12-15T11:41:31.206Z,300
2018-12-15T11:42:38.400Z,301
2018-12-15T11:43:45.594Z,301
2018-12-15T11:44:52.789Z,301
2018-12-15T11:45:59.993Z,300
2018-12-15T11:47:06.907Z,301
2018-12-15T11:48:14.396Z,301
2018-12-15T11:49:21.602Z,300
2018-12-15T11:50:28.522Z,300
2018-12-15T11:51:35.449Z,300
2018-12-15T11:52:42.657Z,300
2018-12-15T11:53:49.581Z,300
2018-12-15T11:54:56.496Z,299
2018-12-15T11:56:03.692Z,300
2018-12-15T11:57:10.885Z,300
2018-12-15T11:58:17.811Z,301
2018-12-15T11:59:25.001Z,301
2018-12-15T12:00:32.204Z,301
2018-12-15T12:01:39.406Z,301
2018-12-15T12:02:46.606Z,300
2018-12-15T12:03:53.839Z,300
2018-12-15T12:05:01.027Z,300
2018-12-15T12:06:07.697Z,300
2018-12-15T12:07:14.902Z,300
2018-12-15T12:08:22.142Z,300
2018-12-15T12:09:29.061Z,299
2018-12-15T12:10:36.259Z,299
2018-12-15T12:11:43.455Z,299
2018-12-15T12:12:50.646Z,300
2018-12-15T12:14:01.364Z,300
2018-12-15T12:15:08.284Z,299
2018-12-15T12:16:15.208Z,299
2018-12-15T12:17:22.404Z,299
2018-12-15T12:18:29.324Z,299
2018-12-15T12:19:36.514Z,300
2018-12-15T12:20:43.436Z,300
2018-12-15T12:21:50.639Z,300
2018-12-15T12:22:57.836Z,300
2018-12-15T12:24:05.033Z,300
2018-12-15T12:25:11.959Z,300
2018-12-15T12:26:19.157Z,300
2018-12-15T12:27:26.394Z,300
2018-12-15T12:28:33.592Z,300
2018-12-15T12:29:40.785Z,299
2018-12-15T12:30:47.987Z,299
2018-12-15T12:31:54.915Z,299
2018-12-15T12:33:02.117Z,300
2018-12-15T12:34:09.038Z,300
2018-12-15T12:35:16.267Z,300
2018-12-15T12:36:23.476Z,300
2018-12-15T12:37:30.673Z,300
2018-12-15T12:38:37.865Z,301
2018-12-15T12:39:45.074Z,300
2018-12-15T12:40:52.275Z,300
2018-12-15T12:41:59.200Z,300
2018-12-15T12:43:06.404Z,300
2018-12-15T12:44:13.321Z,300
2018-12-15T12:45:20.515Z,300
2018-12-15T12:46:27.440Z,300
2018-12-15T12:47:34.630Z,300
2018-12-15T12:48:41.556Z,299
2018-12-15T12:49:48.206Z,299
2018-12-15T12:50:55.132Z,300
2018-12-15T12:52:02.336Z,300
2018-12-15T12:53:09.534Z,300
2018-12-15T12:54:16.752Z,300
2018-12-15T12:55:23.934Z,300
2018-12-15T12:56:30.853Z,300
2018-12-15T12:57:37.780Z,300
2018-12-15T12:58:44.980Z,300
2018-12-15T12:59:51.905Z,300
2018-12-15T13:00:58.823Z,300
2018-12-15T13:02:06.027Z,300
2018-12-15T13:03:13.237Z,301
2018-12-15T13:04:20.169Z,300
2018-12-15T13:05:27.093Z,300
2018-12-15T13:06:34.297Z,301
2018-12-15T13:07:41.223Z,301
2018-12-15T13:08:48.444Z,301
2018-12-15T13:09:55.652Z,301
2018-12-15T13:11:02.853Z,300
2018-12-15T13:12:10.073Z,300
2018-12-15T13:13:17.282Z,301
2018-12-15T13:14:24.216Z,301
2018-12-15T13:15:31.409Z,301
2018-12-15T13:16:38.607Z,301
2018-12-15T13:17:45.807Z,300
2018-12-15T13:18:53.019Z,301
2018-12-15T13:20:04.728Z,301
2018-12-15T13:21:11.928Z,301
2018-12-15T13:22:19.137Z,300
2018-12-15T13:23:26.332Z,300
2018-12-15T13:24:33.756Z,301
2018-12-15T13:25:40.693Z,301
2018-12-15T13:26:48.100Z,301
2018-12-15T13:27:55.302Z,300
2018-12-15T13:29:02.510Z,301
2018-12-15T13:30:09.708Z,301
2018-12-15T13:31:16.916Z,301
2018-12-15T13:32:23.853Z,302
2018-12-15T13:33:31.047Z,301
2018-12-15T13:34:38.248Z,301
2018-12-15T13:35:45.451Z,301
2018-12-15T13:36:52.660Z,301
2018-12-15T13:37:59.868Z,301
2018-12-15T13:39:07.078Z,302
2018-12-15T13:40:14.288Z,301
2018-12-15T13:41:21.493Z,301
2018-12-15T13:42:28.428Z,302
2018-12-15T13:43:35.379Z,302
2018-12-15T13:44:42.320Z,302
2018-12-15T13:45:49.529Z,302
2018-12-15T13:46:56.727Z,302
2018-12-15T13:48:03.934Z,302
2018-12-15T13:49:11.131Z,302
2018-12-15T13:50:18.333Z,302
2018-12-15T13:51:25.537Z,302
2018-12-15T13:52:32.747Z,302
2018-12-15T13:53:39.954Z,302
2018-12-15T13:54:47.159Z,302
2018-12-15T13:55:54.376Z,303
2018-12-15T13:57:01.591Z,303
2018-12-15T13:58:08.518Z,302
2018-12-15T13:59:15.726Z,303
2018-12-15T14:00:22.936Z,303
2018-12-15T14:01:30.143Z,302
2018-12-15T14:02:37.091Z,303
2018-12-15T14:03:44.038Z,303
2018-12-15T14:04:51.253Z,303
2018-12-15T14:05:58.460Z,303
2018-12-15T14:07:05.672Z,303
2018-12-15T14:08:12.342Z,303
2018-12-15T14:09:19.267Z,303
2018-12-15T14:10:26.191Z,303
2018-12-15T14:11:33.410Z,303
2018-12-15T14:12:40.335Z,303
2018-12-15T14:13:46.984Z,303
2018-12-15T14:14:54.183Z,303
2018-12-15T14:16:01.385Z,303
2018-12-15T14:17:08.593Z,304
2018-12-15T14:18:15.792Z,303
2018-12-15T14:19:22.991Z,304
2018-12-15T14:20:29.915Z,303
2018-12-15T14:21:36.846Z,303
2018-12-15T14:22:44.047Z,303
2018-12-15T14:23:51.247Z,304
2018-12-15T14:24:58.446Z,303
2018-12-15T14:26:05.641Z,304
2018-12-15T14:27:12.836Z,304
2018-12-15T14:28:20.033Z,303
2018-12-15T14:29:27.282Z,304
2018-12-15T14:30:34.485Z,304
2018-12-15T14:31:41.681Z,304
2018-12-15T14:32:48.882Z,304
2018-12-15T14:33:56.079Z,303
2018-12-15T14:35:03.273Z,304
2018-12-15T14:36:10.470Z,304
2018-12-15T14:37:17.663Z,304
2018-12-15T14:38:24.861Z,304
2018-12-15T14:39:31.783Z,304
2018-12-15T14:40:38.981Z,304
2018-12-15T14:41:45.632Z,304
2018-12-15T14:42:52.829Z,304
2018-12-15T14:44:00.034Z,305
2018-12-15T14:45:07.245Z,305
2018-12-15T14:46:14.445Z,304
2018-12-15T14:47:21.637Z,305
2018-12-15T14:48:28.556Z,304
2018-12-15T14:49:35.486Z,304
2018-12-15T14:50:42.680Z,305
2018-12-15T14:51:49.874Z,305
2018-12-15T14:52:57.076Z,305
2018-12-15T14:54:04.276Z,304
2018-12-15T14:55:11.470Z,305
2018-12-15T14:56:18.662Z,304
2018-12-15T14:57:25.052Z,305
2018-12-15T14:58:32.248Z,305
2018-12-15T14:59:39.447Z,304
2018-12-15T15:00:46.646Z,305
2018-12-15T15:01:53.860Z,305
2018-12-15T15:03:01.059Z,305
2018-12-15T15:04:08.254Z,305
2018-12-15T15:05:15.452Z,305
2018-12-15T15:06:22.648Z,305
2018-12-15T15:07:29.861Z,305
2018-12-15T15:08:36.786Z,306
2018-12-15T15:09:43.987Z,305
2018-12-15T15:10:51.435Z,305
2018-12-15T15:11:58.653Z,305
2018-12-15T15:13:05.583Z,305
2018-12-15T15:14:12.232Z,305
2018-12-15T15:15:19.428Z,305
2018-12-15T15:16:26.623Z,305
2018-12-15T15:17:33.823Z,305
2018-12-15T15:18:41.020Z,305
2018-12-15T15:19:48.217Z,305
2018-12-15T15:20:55.412Z,305
2018-12-15T15:22:02.608Z,305
2018-12-15T15:23:09.809Z,306
2018-12-15T15:24:16.735Z,306
2018-12-15T15:25:23.949Z,305